createdAt,value
2015-07-25T00:00:01.063Z,22.2
2015-07-25T00:00:19.438Z,22.2
2015-07-25T00:00:37.877Z,22.1
2015-07-25T00:00:56.252Z,22.2
2015-07-25T00:01:14.689Z,22.1
2015-07-25T00:01:33.130Z,22
2015-07-25T00:01:51.614Z,22
2015-07-25T00:02:10.114Z,22
2015-07-25T00:02:28.662Z,22
2015-07-25T00:02:47.115Z,22
2015-07-25T00:03:05.615Z,22
2015-07-25T00:03:23.974Z,22
2015-07-25T00:03:42.398Z,21.9
2015-07-25T00:04:00.758Z,21.9
2015-07-25T00:04:18.492Z,21.9
2015-07-25T00:04:36.979Z,21.9
2015-07-25T00:04:55.479Z,21.8
2015-07-25T00:05:13.917Z,21.9
2015-07-25T00:05:32.512Z,21.9
2015-07-25T00:05:50.933Z,21.9
2015-07-25T00:06:09.558Z,21.9
2015-07-25T00:06:27.980Z,21.8
2015-07-25T00:06:46.357Z,21.8
2015-07-25T00:07:04.764Z,21.8
2015-07-25T00:07:23.201Z,21.9
2015-07-25T00:07:41.594Z,21.9
2015-07-25T00:07:59.437Z,21.9
2015-07-25T00:08:17.828Z,21.8
2015-07-25T00:08:36.330Z,21.9
2015-07-25T00:08:54.736Z,21.9
2015-07-25T00:09:13.189Z,21.9
2015-07-25T00:09:31.736Z,21.9
2015-07-25T00:09:50.145Z,21.9
2015-07-25T00:10:08.566Z,21.9
2015-07-25T00:10:26.973Z,21.8
2015-07-25T00:10:45.506Z,21.9
2015-07-25T00:11:03.943Z,21.8
2015-07-25T00:11:22.397Z,21.9
2015-07-25T00:11:40.930Z,21.8
2015-07-25T00:11:59.336Z,21.8
2015-07-25T00:12:17.695Z,21.9
2015-07-25T00:12:36.229Z,21.9
2015-07-25T00:12:54.682Z,21.9
2015-07-25T00:13:13.135Z,21.9
2015-07-25T00:13:31.541Z,21.8
2015-07-25T00:13:50.028Z,21.8
2015-07-25T00:14:08.387Z,21.8
2015-07-25T00:14:26.871Z,21.9
2015-07-25T00:14:45.544Z,21.9
2015-07-25T00:15:03.950Z,21.9
2015-07-25T00:15:22.310Z,21.9
2015-07-25T00:15:40.703Z,21.8
2015-07-25T00:15:59.422Z,21.8
2015-07-25T00:16:17.875Z,21.8
2015-07-25T00:16:36.422Z,21.8
2015-07-25T00:16:54.924Z,21.9
2015-07-25T00:17:13.659Z,21.9
2015-07-25T00:17:32.127Z,21.9
2015-07-25T00:17:50.614Z,21.9
2015-07-25T00:18:09.223Z,21.8
2015-07-25T00:18:27.707Z,21.9
2015-07-25T00:18:46.083Z,21.8
2015-07-25T00:19:04.552Z,21.8
2015-07-25T00:19:23.333Z,21.8
2015-07-25T00:19:41.912Z,21.8
2015-07-25T00:20:00.415Z,21.8
2015-07-25T00:20:19.040Z,21.8
2015-07-25T00:20:37.805Z,21.8
2015-07-25T00:20:55.712Z,21.8
2015-07-25T00:21:14.556Z,21.8
2015-07-25T00:21:33.212Z,21.8
2015-07-25T00:21:51.699Z,21.9
2015-07-25T00:22:10.511Z,21.9
2015-07-25T00:22:28.886Z,21.9
2015-07-25T00:22:47.324Z,21.9
2015-07-25T00:23:05.733Z,21.8
2015-07-25T00:23:24.171Z,21.8
2015-07-25T00:23:42.577Z,21.7
2015-07-25T00:24:00.954Z,21.8
2015-07-25T00:24:19.391Z,21.8
2015-07-25T00:24:37.751Z,21.8
2015-07-25T00:24:56.190Z,21.9
2015-07-25T00:25:14.893Z,21.9
2015-07-25T00:25:33.440Z,21.8
2015-07-25T00:25:52.003Z,21.8
2015-07-25T00:26:10.520Z,21.8
2015-07-25T00:26:28.958Z,21.8
2015-07-25T00:26:47.505Z,21.8
2015-07-25T00:27:05.928Z,21.8
2015-07-25T00:27:24.349Z,21.8
2015-07-25T00:27:42.724Z,21.7
2015-07-25T00:28:01.101Z,21.7
2015-07-25T00:28:19.539Z,21.8
2015-07-25T00:28:38.117Z,21.6
2015-07-25T00:28:56.680Z,21.7
2015-07-25T00:29:15.542Z,21.7
2015-07-25T00:29:33.401Z,21.7
2015-07-25T00:29:51.776Z,21.7
2015-07-25T00:30:10.560Z,21.6
2015-07-25T00:30:29.013Z,21.7
2015-07-25T00:30:47.575Z,21.6
2015-07-25T00:31:06.077Z,21.7
2015-07-25T00:31:24.515Z,21.7
2015-07-25T00:31:43.030Z,21.6
2015-07-25T00:32:01.405Z,21.7
2015-07-25T00:32:19.859Z,21.5
2015-07-25T00:32:38.375Z,21.6
2015-07-25T00:32:56.922Z,21.5
2015-07-25T00:33:15.408Z,21.5
2015-07-25T00:33:33.924Z,21.5
2015-07-25T00:33:52.315Z,21.5
2015-07-25T00:34:10.677Z,21.5
2015-07-25T00:34:29.286Z,21.5
2015-07-25T00:34:47.755Z,21.5
2015-07-25T00:35:06.161Z,21.6
2015-07-25T00:35:24.850Z,21.6
2015-07-25T00:35:43.287Z,21.5
2015-07-25T00:36:01.975Z,21.5
2015-07-25T00:36:20.430Z,21.6
2015-07-25T00:36:38.914Z,21.6
2015-07-25T00:36:57.446Z,21.6
2015-07-25T00:37:15.885Z,21.6
2015-07-25T00:37:34.260Z,21.7
2015-07-25T00:37:52.619Z,21.7
2015-07-25T00:38:11.416Z,21.6
2015-07-25T00:38:29.997Z,21.6
2015-07-25T00:38:48.560Z,21.7
2015-07-25T00:39:07.310Z,21.7
2015-07-25T00:39:25.749Z,21.6
2015-07-25T00:39:44.281Z,21.7
2015-07-25T00:40:02.687Z,21.6
2015-07-25T00:40:21.063Z,21.6
2015-07-25T00:40:39.469Z,21.6
2015-07-25T00:40:57.875Z,21.7
2015-07-25T00:41:16.579Z,21.7
2015-07-25T00:41:35.065Z,21.7
2015-07-25T00:41:53.549Z,21.6
2015-07-25T00:42:11.987Z,21.6
2015-07-25T00:42:30.348Z,21.6
2015-07-25T00:42:48.723Z,21.6
2015-07-25T00:43:07.098Z,21.6
2015-07-25T00:43:25.522Z,21.7
2015-07-25T00:43:43.881Z,21.6
2015-07-25T00:44:02.381Z,21.6
2015-07-25T00:44:20.915Z,21.6
2015-07-25T00:44:39.305Z,21.6
2015-07-25T00:44:57.712Z,21.6
2015-07-25T00:45:16.071Z,21.6
2015-07-25T00:45:34.526Z,21.7
2015-07-25T00:45:53.057Z,21.7
2015-07-25T00:46:11.448Z,21.6
2015-07-25T00:46:29.872Z,21.6
2015-07-25T00:46:48.231Z,21.6
2015-07-25T00:47:06.591Z,21.6
2015-07-25T00:47:25.029Z,21.6
2015-07-25T00:47:43.576Z,21.6
2015-07-25T00:48:02.092Z,21.5
2015-07-25T00:48:20.654Z,21.5
2015-07-25T00:48:38.407Z,21.5
2015-07-25T00:48:57.079Z,21.5
2015-07-25T00:49:15.470Z,21.5
2015-07-25T00:49:34.112Z,21.4
2015-07-25T00:49:52.565Z,21.4
2015-07-25T00:50:11.065Z,21.4
2015-07-25T00:50:29.474Z,21.4
2015-07-25T00:50:48.020Z,21.5
2015-07-25T00:51:06.395Z,21.5
2015-07-25T00:51:24.833Z,21.5
2015-07-25T00:51:43.209Z,21.5
2015-07-25T00:52:01.568Z,21.5
2015-07-25T00:52:19.975Z,21.5
2015-07-25T00:52:38.353Z,21.5
2015-07-25T00:52:56.837Z,21.6
2015-07-25T00:53:15.212Z,21.5
2015-07-25T00:53:33.697Z,21.4
2015-07-25T00:53:52.150Z,21.5
2015-07-25T00:54:10.541Z,21.6
2015-07-25T00:54:28.916Z,21.6
2015-07-25T00:54:47.387Z,21.5
2015-07-25T00:55:05.793Z,21.5
2015-07-25T00:55:24.340Z,21.5
2015-07-25T00:55:42.874Z,21.5
2015-07-25T00:56:01.312Z,21.5
2015-07-25T00:56:20.140Z,21.5
2015-07-25T00:56:38.563Z,21.5
2015-07-25T00:56:57.281Z,21.5
2015-07-25T00:57:15.703Z,21.5
2015-07-25T00:57:34.110Z,21.5
2015-07-25T00:57:52.627Z,21.5
2015-07-25T00:58:11.018Z,21.5
2015-07-25T00:58:29.518Z,21.5
2015-07-25T00:58:47.896Z,21.5
2015-07-25T00:59:06.318Z,21.4
2015-07-25T00:59:24.802Z,21.4
2015-07-25T00:59:43.209Z,21.5
2015-07-25T01:00:01.616Z,21.5
2015-07-25T01:00:20.022Z,21.5
2015-07-25T01:00:38.383Z,21.5
2015-07-25T01:00:57.039Z,21.5
2015-07-25T01:01:15.524Z,21.6
2015-07-25T01:01:33.961Z,21.5
2015-07-25T01:01:52.432Z,21.5
2015-07-25T01:02:10.807Z,21.6
2015-07-25T01:02:29.510Z,21.6
2015-07-25T01:02:48.262Z,21.6
2015-07-25T01:03:06.793Z,21.6
2015-07-25T01:03:25.200Z,21.5
2015-07-25T01:03:43.827Z,21.5
2015-07-25T01:04:01.920Z,21.6
2015-07-25T01:04:20.483Z,21.6
2015-07-25T01:04:38.920Z,21.7
2015-07-25T01:04:57.563Z,21.7
2015-07-25T01:05:16.110Z,21.7
2015-07-25T01:05:34.563Z,21.7
2015-07-25T01:05:53.424Z,21.7
2015-07-25T01:06:11.909Z,21.7
2015-07-25T01:06:30.596Z,21.8
2015-07-25T01:06:49.473Z,21.8
2015-07-25T01:07:07.958Z,21.7
2015-07-25T01:07:26.426Z,21.8
2015-07-25T01:07:45.130Z,21.8
2015-07-25T01:08:03.585Z,21.8
2015-07-25T01:08:22.053Z,21.8
2015-07-25T01:08:40.413Z,21.9
2015-07-25T01:08:59.009Z,21.8
2015-07-25T01:09:17.602Z,21.9
2015-07-25T01:09:36.087Z,21.9
2015-07-25T01:09:53.885Z,21.8
2015-07-25T01:10:12.260Z,21.8
2015-07-25T01:10:30.697Z,21.8
2015-07-25T01:10:49.074Z,21.7
2015-07-25T01:11:07.730Z,21.7
2015-07-25T01:11:26.230Z,21.8
2015-07-25T01:11:44.668Z,21.8
2015-07-25T01:12:03.249Z,21.8
2015-07-25T01:12:21.921Z,21.9
2015-07-25T01:12:40.311Z,21.8
2015-07-25T01:12:58.735Z,21.8
2015-07-25T01:13:17.329Z,21.8
2015-07-25T01:13:35.892Z,21.8
2015-07-25T01:13:54.377Z,21.8
2015-07-25T01:14:13.252Z,21.9
2015-07-25T01:14:31.643Z,21.9
2015-07-25T01:14:50.096Z,21.9
2015-07-25T01:15:08.598Z,21.9
2015-07-25T01:15:27.098Z,22
2015-07-25T01:15:45.520Z,22
2015-07-25T01:16:03.913Z,22
2015-07-25T01:16:22.366Z,22.1
2015-07-25T01:16:40.804Z,22.1
2015-07-25T01:16:59.195Z,22.1
2015-07-25T01:17:17.555Z,22.1
2015-07-25T01:17:36.039Z,22.1
2015-07-25T01:17:54.570Z,22.1
2015-07-25T01:18:13.151Z,22.1
2015-07-25T01:18:31.510Z,22.1
2015-07-25T01:18:50.057Z,22.1
2015-07-25T01:19:08.482Z,22
2015-07-25T01:19:26.841Z,22.1
2015-07-25T01:19:45.466Z,22.1
2015-07-25T01:20:03.826Z,22
2015-07-25T01:20:22.451Z,22
2015-07-25T01:20:40.842Z,22
2015-07-25T01:20:59.186Z,22.1
2015-07-25T01:21:17.689Z,22.1
2015-07-25T01:21:36.079Z,22.1
2015-07-25T01:21:54.470Z,22.1
2015-07-25T01:22:12.830Z,22
2015-07-25T01:22:31.221Z,21.9
2015-07-25T01:22:49.580Z,22
2015-07-25T01:23:07.990Z,22
2015-07-25T01:23:26.490Z,22
2015-07-25T01:23:45.005Z,22
2015-07-25T01:24:03.396Z,22
2015-07-25T01:24:22.006Z,22
2015-07-25T01:24:40.553Z,22
2015-07-25T01:24:58.928Z,22.1
2015-07-25T01:25:16.633Z,22.1
2015-07-25T01:25:35.008Z,22.1
2015-07-25T01:25:52.711Z,22
2015-07-25T01:26:11.120Z,22.1
2015-07-25T01:26:29.495Z,22.1
2015-07-25T01:26:48.057Z,22.2
2015-07-25T01:27:06.510Z,22.2
2015-07-25T01:27:25.247Z,22.2
2015-07-25T01:27:43.778Z,22.2
2015-07-25T01:28:02.200Z,22.1
2015-07-25T01:28:20.764Z,22.1
2015-07-25T01:28:39.171Z,22.1
2015-07-25T01:28:57.671Z,22
2015-07-25T01:29:16.235Z,21.9
2015-07-25T01:29:34.657Z,21.9
2015-07-25T01:29:53.266Z,22
2015-07-25T01:30:11.954Z,22
2015-07-25T01:30:30.409Z,22
2015-07-25T01:30:48.831Z,22
2015-07-25T01:31:07.206Z,21.9
2015-07-25T01:31:25.739Z,21.9
2015-07-25T01:31:44.239Z,22
2015-07-25T01:32:02.692Z,22.1
2015-07-25T01:32:21.272Z,22
2015-07-25T01:32:39.850Z,22
2015-07-25T01:32:58.225Z,22.1
2015-07-25T01:33:16.772Z,22
2015-07-25T01:33:35.540Z,21.9
2015-07-25T01:33:54.040Z,21.9
2015-07-25T01:34:12.509Z,21.9
2015-07-25T01:34:31.104Z,22
2015-07-25T01:34:49.542Z,21.9
2015-07-25T01:35:07.901Z,21.8
2015-07-25T01:35:26.325Z,21.9
2015-07-25T01:35:45.013Z,22
2015-07-25T01:36:03.481Z,22
2015-07-25T01:36:22.200Z,22
2015-07-25T01:36:40.749Z,22.1
2015-07-25T01:36:59.218Z,22.1
2015-07-25T01:37:17.671Z,22
2015-07-25T01:37:36.234Z,22.1
2015-07-25T01:37:54.672Z,22.1
2015-07-25T01:38:13.359Z,22.1
2015-07-25T01:38:32.393Z,22.1
2015-07-25T01:38:50.768Z,22.1
2015-07-25T01:39:09.127Z,22
2015-07-25T01:39:27.533Z,22.1
2015-07-25T01:39:45.973Z,22
2015-07-25T01:40:04.395Z,22
2015-07-25T01:40:22.832Z,22
2015-07-25T01:40:41.319Z,22.1
2015-07-25T01:40:59.787Z,22.1
2015-07-25T01:41:17.506Z,22.2
2015-07-25T01:41:35.868Z,22.1
2015-07-25T01:41:54.650Z,22.1
2015-07-25T01:42:13.243Z,22
2015-07-25T01:42:31.884Z,21.9
2015-07-25T01:42:49.666Z,22
2015-07-25T01:43:08.088Z,22
2015-07-25T01:43:26.635Z,22.1
2015-07-25T01:43:45.044Z,22
2015-07-25T01:44:03.435Z,22
2015-07-25T01:44:21.951Z,22
2015-07-25T01:44:40.437Z,22
2015-07-25T01:44:59.187Z,22
2015-07-25T01:45:17.562Z,22.1
2015-07-25T01:45:35.953Z,22.1
2015-07-25T01:45:54.361Z,22
2015-07-25T01:46:12.736Z,22.1
2015-07-25T01:46:31.189Z,22.1
2015-07-25T01:46:49.299Z,22
2015-07-25T01:47:07.846Z,22.1
2015-07-25T01:47:26.221Z,22.1
2015-07-25T01:47:44.942Z,22.1
2015-07-25T01:48:03.442Z,22.1
2015-07-25T01:48:22.208Z,22.2
2015-07-25T01:48:40.661Z,22.2
2015-07-25T01:48:59.054Z,22.2
2015-07-25T01:49:17.554Z,22.3
2015-07-25T01:49:35.961Z,22.3
2015-07-25T01:49:54.369Z,22.2
2015-07-25T01:50:12.759Z,22.2
2015-07-25T01:50:31.181Z,22.2
2015-07-25T01:50:49.557Z,22.2
2015-07-25T01:51:07.964Z,22.2
2015-07-25T01:51:26.229Z,22.3
2015-07-25T01:51:44.714Z,22.3
2015-07-25T01:52:03.122Z,22.2
2015-07-25T01:52:21.684Z,22.2
2015-07-25T01:52:40.231Z,22.2
2015-07-25T01:52:58.764Z,22.3
2015-07-25T01:53:17.186Z,22.3
2015-07-25T01:53:35.749Z,22.3
2015-07-25T01:53:53.485Z,22.2
2015-07-25T01:54:11.891Z,22.1
2015-07-25T01:54:30.438Z,22.1
2015-07-25T01:54:48.878Z,22.2
2015-07-25T01:55:07.237Z,22.2
2015-07-25T01:55:25.784Z,22.1
2015-07-25T01:55:44.237Z,22.2
2015-07-25T01:56:02.599Z,22.2
2015-07-25T01:56:21.052Z,22.2
2015-07-25T01:56:39.489Z,22.2
2015-07-25T01:56:58.086Z,22.3
2015-07-25T01:57:16.492Z,22.3
2015-07-25T01:57:34.852Z,22.3
2015-07-25T01:57:53.353Z,22.3
2015-07-25T01:58:11.774Z,22.3
2015-07-25T01:58:30.196Z,22.3
2015-07-25T01:58:48.556Z,22.2
2015-07-25T01:59:06.526Z,22.2
2015-07-25T01:59:24.386Z,22.2
2015-07-25T01:59:43.073Z,22.3
2015-07-25T02:00:01.935Z,22.3
2015-07-25T02:00:20.388Z,22.3
2015-07-25T02:00:38.966Z,22.3
2015-07-25T02:00:57.468Z,22.3
2015-07-25T02:01:16.155Z,22.2
2015-07-25T02:01:34.952Z,22.2
2015-07-25T02:01:53.374Z,22.2
2015-07-25T02:02:11.782Z,22.2
2015-07-25T02:02:30.298Z,22.1
2015-07-25T02:02:48.736Z,22.2
2015-07-25T02:03:07.253Z,22.2
2015-07-25T02:03:26.113Z,22.2
2015-07-25T02:03:44.550Z,22.2
2015-07-25T02:04:03.285Z,22.3
2015-07-25T02:04:22.098Z,22.3
2015-07-25T02:04:40.614Z,22.3
2015-07-25T02:04:59.176Z,22.3
2015-07-25T02:05:17.663Z,22.3
2015-07-25T02:05:36.085Z,22.3
2015-07-25T02:05:54.523Z,22.3
2015-07-25T02:06:12.962Z,22.3
2015-07-25T02:06:30.853Z,22.3
2015-07-25T02:06:49.431Z,22.3
2015-07-25T02:07:07.855Z,22.3
2015-07-25T02:07:26.636Z,22.3
2015-07-25T02:07:45.011Z,22.3
2015-07-25T02:08:03.527Z,22.3
2015-07-25T02:08:21.919Z,22.3
2015-07-25T02:08:40.294Z,22.2
2015-07-25T02:08:58.841Z,22.2
2015-07-25T02:09:17.625Z,22.2
2015-07-25T02:09:36.046Z,22.1
2015-07-25T02:09:54.515Z,22.1
2015-07-25T02:10:13.095Z,22.1
2015-07-25T02:10:31.720Z,22.1
2015-07-25T02:10:50.611Z,22.1
2015-07-25T02:11:09.205Z,22
2015-07-25T02:11:27.722Z,22
2015-07-25T02:11:46.269Z,22.1
2015-07-25T02:12:04.863Z,22.1
2015-07-25T02:12:23.223Z,22.1
2015-07-25T02:12:41.895Z,22.1
2015-07-25T02:13:00.614Z,22.2
2015-07-25T02:13:19.492Z,22.2
2015-07-25T02:13:38.008Z,22.2
2015-07-25T02:13:56.679Z,22.2
2015-07-25T02:14:15.523Z,22.2
2015-07-25T02:14:34.462Z,22.3
2015-07-25T02:14:52.837Z,22.3
2015-07-25T02:15:11.446Z,22.3
2015-07-25T02:15:29.933Z,22.3
2015-07-25T02:15:48.308Z,22.3
2015-07-25T02:16:07.027Z,22.2
2015-07-25T02:16:25.482Z,22.2
2015-07-25T02:16:44.060Z,22.2
2015-07-25T02:17:02.514Z,22.3
2015-07-25T02:17:21.124Z,22.3
2015-07-25T02:17:39.483Z,22.3
2015-07-25T02:17:57.921Z,22.3
2015-07-25T02:18:16.499Z,22.3
2015-07-25T02:18:34.938Z,22.3
2015-07-25T02:18:53.673Z,22.3
2015-07-25T02:19:12.438Z,22.3
2015-07-25T02:19:30.847Z,22.3
2015-07-25T02:19:49.519Z,22.4
2015-07-25T02:20:08.034Z,22.3
2015-07-25T02:20:26.442Z,22.3
2015-07-25T02:20:44.864Z,22.3
2015-07-25T02:21:03.333Z,22.3
2015-07-25T02:21:21.927Z,22.3
2015-07-25T02:21:40.460Z,22.3
2015-07-25T02:21:59.163Z,22.3
2015-07-25T02:22:17.694Z,22.3
2015-07-25T02:22:36.243Z,22.4
2015-07-25T02:22:54.634Z,22.4
2015-07-25T02:23:13.306Z,22.4
2015-07-25T02:23:31.934Z,22.4
2015-07-25T02:23:50.668Z,22.4
2015-07-25T02:24:09.309Z,22.4
2015-07-25T02:24:27.668Z,22.5
2015-07-25T02:24:46.544Z,22.5
2015-07-25T02:25:05.091Z,22.4
2015-07-25T02:25:23.607Z,22.5
2015-07-25T02:25:41.968Z,22.4
2015-07-25T02:26:00.327Z,22.5
2015-07-25T02:26:19.046Z,22.5
2015-07-25T02:26:37.439Z,22.5
2015-07-25T02:26:56.173Z,22.4
2015-07-25T02:27:14.579Z,22.4
2015-07-25T02:27:33.220Z,22.4
2015-07-25T02:27:51.644Z,22.4
2015-07-25T02:28:10.019Z,22.4
2015-07-25T02:28:28.394Z,22.4
2015-07-25T02:28:47.099Z,22.5
2015-07-25T02:29:05.599Z,22.5
2015-07-25T02:29:24.052Z,22.4
2015-07-25T02:29:42.414Z,22.5
2015-07-25T02:30:00.992Z,22.5
2015-07-25T02:30:19.523Z,22.5
2015-07-25T02:30:38.212Z,22.5
2015-07-25T02:30:56.572Z,22.5
2015-07-25T02:31:15.181Z,22.5
2015-07-25T02:31:33.150Z,22.5
2015-07-25T02:31:51.527Z,22.5
2015-07-25T02:32:10.214Z,22.3
2015-07-25T02:32:28.746Z,22.2
2015-07-25T02:32:47.310Z,22.3
2015-07-25T02:33:05.841Z,22.3
2015-07-25T02:33:23.716Z,22.3
2015-07-25T02:33:42.405Z,22.3
2015-07-25T02:34:00.811Z,22.3
2015-07-25T02:34:19.280Z,22.4
2015-07-25T02:34:37.702Z,22.4
2015-07-25T02:34:56.142Z,22.4
2015-07-25T02:35:14.564Z,22.4
2015-07-25T02:35:32.970Z,22.3
2015-07-25T02:35:51.362Z,22.3
2015-07-25T02:36:10.034Z,22.4
2015-07-25T02:36:28.440Z,22.4
2015-07-25T02:36:46.849Z,22.4
2015-07-25T02:37:05.396Z,22.3
2015-07-25T02:37:23.959Z,22.3
2015-07-25T02:37:42.490Z,22.3
2015-07-25T02:38:01.272Z,22.3
2015-07-25T02:38:19.835Z,22.3
2015-07-25T02:38:38.491Z,22.3
2015-07-25T02:38:56.977Z,22.3
2015-07-25T02:39:15.337Z,22.3
2015-07-25T02:39:33.946Z,22.3
2015-07-25T02:39:52.323Z,22.3
2015-07-25T02:40:10.698Z,22.3
2015-07-25T02:40:29.058Z,22.3
2015-07-25T02:40:47.511Z,22.2
2015-07-25T02:41:05.872Z,22.3
2015-07-25T02:41:24.528Z,22.2
2015-07-25T02:41:43.060Z,22.2
2015-07-25T02:42:01.608Z,22.2
2015-07-25T02:42:19.999Z,22.1
2015-07-25T02:42:38.499Z,22.1
2015-07-25T02:42:57.095Z,22.1
2015-07-25T02:43:15.704Z,22.1
2015-07-25T02:43:34.079Z,21.9
2015-07-25T02:43:52.845Z,22
2015-07-25T02:44:11.284Z,21.9
2015-07-25T02:44:29.831Z,22
2015-07-25T02:44:48.394Z,22
2015-07-25T02:45:06.959Z,21.9
2015-07-25T02:45:25.365Z,21.8
2015-07-25T02:45:43.881Z,21.8
2015-07-25T02:46:02.242Z,21.7
2015-07-25T02:46:20.664Z,21.8
2015-07-25T02:46:39.024Z,21.8
2015-07-25T02:46:57.399Z,21.8
2015-07-25T02:47:15.759Z,21.8
2015-07-25T02:47:34.228Z,21.8
2015-07-25T02:47:52.790Z,21.8
2015-07-25T02:48:11.199Z,21.8
2015-07-25T02:48:29.745Z,21.7
2015-07-25T02:48:48.417Z,21.6
2015-07-25T02:49:06.967Z,21.6
2015-07-25T02:49:25.670Z,21.6
2015-07-25T02:49:44.311Z,21.7
2015-07-25T02:50:02.905Z,21.7
2015-07-25T02:50:21.312Z,21.8
2015-07-25T02:50:39.749Z,21.8
2015-07-25T02:50:58.390Z,21.8
2015-07-25T02:51:16.970Z,21.8
2015-07-25T02:51:35.501Z,21.8
2015-07-25T02:51:53.955Z,21.9
2015-07-25T02:52:12.472Z,21.9
2015-07-25T02:52:31.066Z,21.9
2015-07-25T02:52:49.488Z,21.9
2015-07-25T02:53:08.146Z,21.9
2015-07-25T02:53:26.802Z,21.9
2015-07-25T02:53:45.240Z,21.9
2015-07-25T02:54:04.115Z,21.8
2015-07-25T02:54:22.570Z,21.9
2015-07-25T02:54:40.929Z,21.9
2015-07-25T02:54:59.414Z,21.9
2015-07-25T02:55:17.775Z,21.9
2015-07-25T02:55:36.213Z,21.9
2015-07-25T02:55:54.744Z,21.9
2015-07-25T02:56:13.168Z,21.8
2015-07-25T02:56:31.527Z,21.8
2015-07-25T02:56:49.949Z,21.8
2015-07-25T02:57:08.308Z,21.9
2015-07-25T02:57:26.763Z,21.9
2015-07-25T02:57:45.529Z,21.9
2015-07-25T02:58:04.092Z,21.8
2015-07-25T02:58:22.781Z,21.8
2015-07-25T02:58:41.156Z,21.8
2015-07-25T02:58:59.672Z,21.8
2015-07-25T02:59:18.064Z,21.8
2015-07-25T02:59:36.627Z,21.8
2015-07-25T02:59:55.111Z,21.8
2015-07-25T03:00:13.551Z,21.8
2015-07-25T03:00:31.988Z,21.8
2015-07-25T03:00:49.707Z,21.8
2015-07-25T03:01:08.144Z,21.7
2015-07-25T03:01:26.583Z,21.8
2015-07-25T03:01:45.020Z,21.9
2015-07-25T03:02:03.536Z,21.8
2015-07-25T03:02:22.241Z,21.9
2015-07-25T03:02:40.976Z,21.9
2015-07-25T03:02:59.491Z,21.9
2015-07-25T03:03:18.057Z,22
2015-07-25T03:03:36.650Z,21.9
2015-07-25T03:03:55.057Z,21.9
2015-07-25T03:04:13.432Z,21.9
2015-07-25T03:04:31.855Z,21.9
2015-07-25T03:04:50.198Z,22
2015-07-25T03:05:08.573Z,22
2015-07-25T03:05:27.029Z,22
2015-07-25T03:05:45.514Z,22
2015-07-25T03:06:04.076Z,22
2015-07-25T03:06:22.578Z,22.1
2015-07-25T03:06:40.969Z,22.1
2015-07-25T03:06:59.453Z,22
2015-07-25T03:07:17.875Z,22
2015-07-25T03:07:36.251Z,22
2015-07-25T03:07:54.611Z,22.1
2015-07-25T03:08:13.157Z,22.1
2015-07-25T03:08:31.566Z,22
2015-07-25T03:08:50.144Z,22
2015-07-25T03:09:08.503Z,22
2015-07-25T03:09:27.052Z,22
2015-07-25T03:09:45.568Z,22
2015-07-25T03:10:04.115Z,22.1
2015-07-25T03:10:22.505Z,22.1
2015-07-25T03:10:41.007Z,22.1
2015-07-25T03:10:59.429Z,22.1
2015-07-25T03:11:17.835Z,22.1
2015-07-25T03:11:36.228Z,22
2015-07-25T03:11:54.728Z,22
2015-07-25T03:12:13.087Z,22
2015-07-25T03:12:31.497Z,22
2015-07-25T03:12:50.028Z,21.9
2015-07-25T03:13:08.434Z,21.9
2015-07-25T03:13:26.840Z,22
2015-07-25T03:13:45.280Z,22
2015-07-25T03:14:03.842Z,21.9
2015-07-25T03:14:22.436Z,21.9
2015-07-25T03:14:40.985Z,21.9
2015-07-25T03:14:59.485Z,21.9
2015-07-25T03:15:17.876Z,21.9
2015-07-25T03:15:36.284Z,22
2015-07-25T03:15:54.737Z,21.9
2015-07-25T03:16:13.096Z,21.8
2015-07-25T03:16:31.503Z,21.9
2015-07-25T03:16:50.160Z,21.9
2015-07-25T03:17:08.535Z,21.8
2015-07-25T03:17:27.144Z,21.7
2015-07-25T03:17:45.506Z,21.8
2015-07-25T03:18:04.099Z,21.8
2015-07-25T03:18:22.724Z,21.8
2015-07-25T03:18:41.429Z,21.8
2015-07-25T03:18:59.804Z,21.8
2015-07-25T03:19:18.383Z,21.8
2015-07-25T03:19:37.086Z,21.9
2015-07-25T03:19:55.463Z,21.9
2015-07-25T03:20:14.041Z,21.9
2015-07-25T03:20:32.510Z,21.8
2015-07-25T03:20:51.027Z,21.9
2015-07-25T03:21:09.418Z,21.9
2015-07-25T03:21:28.012Z,21.9
2015-07-25T03:21:46.420Z,21.9
2015-07-25T03:22:05.154Z,21.9
2015-07-25T03:22:23.576Z,21.9
2015-07-25T03:22:42.076Z,22
2015-07-25T03:22:59.969Z,22
2015-07-25T03:23:18.500Z,21.9
2015-07-25T03:23:37.141Z,21.9
2015-07-25T03:23:55.674Z,21.9
2015-07-25T03:24:14.268Z,21.9
2015-07-25T03:24:32.721Z,21.9
2015-07-25T03:24:51.144Z,22
2015-07-25T03:25:09.581Z,22
2015-07-25T03:25:28.003Z,22
2015-07-25T03:25:46.409Z,22
2015-07-25T03:26:04.959Z,22
2015-07-25T03:26:23.537Z,21.9
2015-07-25T03:26:41.943Z,21.9
2015-07-25T03:27:00.352Z,21.8
2015-07-25T03:27:18.899Z,21.8
2015-07-25T03:27:37.539Z,21.7
2015-07-25T03:27:55.604Z,21.8
2015-07-25T03:28:14.244Z,21.8
2015-07-25T03:28:32.604Z,21.8
2015-07-25T03:28:51.291Z,21.9
2015-07-25T03:29:09.668Z,21.9
2015-07-25T03:29:28.043Z,21.8
2015-07-25T03:29:46.715Z,21.8
2015-07-25T03:30:05.092Z,21.8
2015-07-25T03:30:23.780Z,21.7
2015-07-25T03:30:42.280Z,21.8
2015-07-25T03:31:01.000Z,21.8
2015-07-25T03:31:19.360Z,21.7
2015-07-25T03:31:37.594Z,21.8
2015-07-25T03:31:56.157Z,21.8
2015-07-25T03:32:14.580Z,21.8
2015-07-25T03:32:33.080Z,21.8
2015-07-25T03:32:51.549Z,21.8
2015-07-25T03:33:10.036Z,21.9
2015-07-25T03:33:28.567Z,21.9
2015-07-25T03:33:47.067Z,21.9
2015-07-25T03:34:05.678Z,21.8
2015-07-25T03:34:24.303Z,21.8
2015-07-25T03:34:43.100Z,21.8
2015-07-25T03:35:01.756Z,21.9
2015-07-25T03:35:20.290Z,21.9
2015-07-25T03:35:38.665Z,21.8
2015-07-25T03:35:57.086Z,21.7
2015-07-25T03:36:15.682Z,21.6
2015-07-25T03:36:34.073Z,21.7
2015-07-25T03:36:52.510Z,21.7
2015-07-25T03:37:10.902Z,21.7
2015-07-25T03:37:29.793Z,21.7
2015-07-25T03:37:48.246Z,21.7
2015-07-25T03:38:06.857Z,21.8
2015-07-25T03:38:25.826Z,21.7
2015-07-25T03:38:44.451Z,21.7
2015-07-25T03:39:02.998Z,21.7
2015-07-25T03:39:21.422Z,21.7
2015-07-25T03:39:40.187Z,21.7
2015-07-25T03:39:58.578Z,21.7
2015-07-25T03:40:17.174Z,21.7
2015-07-25T03:40:35.674Z,21.7
2015-07-25T03:40:54.127Z,21.7
2015-07-25T03:41:12.488Z,21.7
2015-07-25T03:41:30.941Z,21.7
2015-07-25T03:41:49.597Z,21.8
2015-07-25T03:42:08.160Z,21.8
2015-07-25T03:42:26.756Z,21.8
2015-07-25T03:42:45.240Z,21.8
2015-07-25T03:43:03.912Z,21.9
2015-07-25T03:43:22.524Z,21.9
2015-07-25T03:43:41.040Z,21.9
2015-07-25T03:43:59.462Z,21.8
2015-07-25T03:44:18.135Z,21.7
2015-07-25T03:44:36.728Z,21.7
2015-07-25T03:44:55.197Z,21.6
2015-07-25T03:45:13.685Z,21.7
2015-07-25T03:45:32.763Z,21.7
2015-07-25T03:45:51.138Z,21.7
2015-07-25T03:46:09.575Z,21.7
2015-07-25T03:46:27.982Z,21.8
2015-07-25T03:46:46.498Z,21.8
2015-07-25T03:47:04.951Z,21.8
2015-07-25T03:47:23.516Z,21.8
2015-07-25T03:47:42.109Z,21.7
2015-07-25T03:48:00.609Z,21.8
2015-07-25T03:48:19.236Z,21.8
2015-07-25T03:48:37.752Z,21.8
2015-07-25T03:48:56.205Z,21.8
2015-07-25T03:49:14.768Z,21.8
2015-07-25T03:49:33.442Z,21.8
2015-07-25T03:49:51.863Z,21.8
2015-07-25T03:50:10.395Z,21.8
2015-07-25T03:50:28.897Z,21.9
2015-07-25T03:50:47.444Z,21.9
2015-07-25T03:51:05.834Z,21.9
2015-07-25T03:51:24.242Z,21.9
2015-07-25T03:51:42.602Z,21.9
2015-07-25T03:52:01.227Z,21.9
2015-07-25T03:52:19.680Z,22
2015-07-25T03:52:38.213Z,22.1
2015-07-25T03:52:56.698Z,22.1
2015-07-25T03:53:15.401Z,22.1
2015-07-25T03:53:34.012Z,22.1
2015-07-25T03:53:52.606Z,22.1
2015-07-25T03:54:11.153Z,22
2015-07-25T03:54:29.561Z,21.9
2015-07-25T03:54:48.014Z,21.8
2015-07-25T03:55:06.764Z,21.8
2015-07-25T03:55:25.344Z,21.8
2015-07-25T03:55:44.047Z,21.9
2015-07-25T03:56:02.688Z,21.9
2015-07-25T03:56:21.204Z,21.9
2015-07-25T03:56:39.706Z,21.9
2015-07-25T03:56:58.081Z,21.9
2015-07-25T03:57:16.502Z,22
2015-07-25T03:57:35.083Z,22
2015-07-25T03:57:53.458Z,22
2015-07-25T03:58:11.270Z,22
2015-07-25T03:58:29.631Z,22
2015-07-25T03:58:48.100Z,22
2015-07-25T03:59:06.522Z,22.1
2015-07-25T03:59:25.210Z,22
2015-07-25T03:59:43.570Z,21.9
2015-07-25T04:00:02.164Z,21.9
2015-07-25T04:00:20.820Z,21.8
2015-07-25T04:00:39.401Z,21.7
2015-07-25T04:00:57.917Z,21.7
2015-07-25T04:01:16.401Z,21.7
2015-07-25T04:01:34.919Z,21.7
2015-07-25T04:01:53.278Z,21.8
2015-07-25T04:02:11.653Z,21.7
2015-07-25T04:02:30.247Z,21.6
2015-07-25T04:02:48.685Z,21.6
2015-07-25T04:03:07.092Z,21.7
2015-07-25T04:03:25.482Z,21.7
2015-07-25T04:03:43.906Z,21.7
2015-07-25T04:04:02.500Z,21.7
2015-07-25T04:04:21.219Z,21.7
2015-07-25T04:04:39.846Z,21.7
2015-07-25T04:04:58.564Z,21.7
2015-07-25T04:05:17.017Z,21.8
2015-07-25T04:05:35.517Z,21.8
2015-07-25T04:05:53.880Z,21.9
2015-07-25T04:06:12.583Z,21.9
2015-07-25T04:06:31.067Z,21.9
2015-07-25T04:06:49.506Z,21.9
2015-07-25T04:07:08.037Z,21.9
2015-07-25T04:07:26.428Z,21.9
2015-07-25T04:07:44.914Z,22